Have a Safe July 4th! 

Flight Track Log - Related Links

Times and Time Zones

All times are in EDT time to prevent confusion due to time zone crossing. See the CTL61 flight status page for this flight to view local times or setup timezone preferences in your user account.

Time Position Orientation Groundspeed Altitude Reporting Facility
EDT Latitude Longitude Course Direction KTS MPH feet Rate Location/Type
Thu 11:41:13 PM 38.4661 -81.6931 329° Northwest 146 168 4,200  Level Indianapolis Center
Thu 11:42:14 PM 38.5011 -81.7228 326° Northwest 150 173 5,100 836 Climbing Indianapolis Center
Thu 11:43:00 PM 38.5631 -81.7507 327° Northwest  Level FlightAware Approximate
Thu 11:43:15 PM 38.5364 -81.7508 328° Northwest 149 171 5,900  Level Indianapolis Center
Thu 11:44:00 PM 38.6026 -81.7841 327° Northwest  Level FlightAware Approximate
Thu 11:44:16 PM 38.5706 -81.7844 322° Northwest 152 175 6,000  Level Indianapolis Center
Thu 11:45:00 PM 38.6421 -81.8175 327° Northwest  Level FlightAware Approximate
Thu 11:45:17 PM 38.6136 -81.8208 327° Northwest 179 206 6,100  Level Indianapolis Center
Thu 11:46:18 PM 38.6647 -81.8650 326° Northwest 183 211 6,100  Level Indianapolis Center
Thu 11:47:19 PM 38.7081 -81.9017 327° Northwest 184 212 6,100  Level Indianapolis Center
Thu 11:48:21 PM 38.7508 -81.9400 325° Northwest 188 216 6,100  Level Indianapolis Center
Thu 11:49:22 PM 38.7933 -81.9758 327° Northwest 184 212 6,100  Level Indianapolis Center
Thu 11:50:23 PM 38.8364 -82.0131 326° Northwest 185 213 6,100  Level Indianapolis Center
Thu 11:51:24 PM 38.8789 -82.0503 326° Northwest 184 212 6,100  Level Indianapolis Center
Thu 11:52:25 PM 38.9225 -82.0861 327° Northwest 185 213 6,100 49 Level Indianapolis Center
Thu 11:53:26 PM 38.9664 -82.1222 327° Northwest 186 214 6,200 49 Climbing Indianapolis Center
Thu 11:54:27 PM 39.0086 -82.1594 326° Northwest 183 211 6,200  Level Indianapolis Center
Thu 11:55:28 PM 39.0508 -82.1961 326° Northwest 184 212 6,200  Level Indianapolis Center
Thu 11:56:29 PM 39.0950 -82.2325 327° Northwest 187 215 6,200  Level Indianapolis Center
Thu 11:57:30 PM 39.1383 -82.2700 326° Northwest 187 215 6,200 -49 Level Indianapolis Center
Thu 11:58:31 PM 39.1828 -82.3072 327° Northwest 189 217 6,100 -49 Descending Indianapolis Center
Thu 11:59:32 PM 39.2278 -82.3439 328° Northwest 190 219 6,100  Level Indianapolis Center
Fri 12:00:33 AM 39.2739 -82.3811 328° Northwest 193 222 6,100  Level Indianapolis Center
Fri 12:01:34 AM 39.3181 -82.4167 328° Northwest 189 217 6,100  Level Indianapolis Center
Fri 12:02:35 AM 39.3750 -82.4583 331° Northwest 194 223 6,100  Level Indianapolis Center
Fri 12:02:50 AM 39.3853 -82.4656 331° Northwest 194 223 6,100 98 Level Indianapolis Center
Fri 12:03:36 AM 39.4194 -82.4942 327° Northwest 189 217 6,200  Climbing Indianapolis Center
Fri 12:03:51 AM 39.4289 -82.5025 326° Northwest 190 219 6,100 -98 Descending Indianapolis Center
Fri 12:04:37 AM 39.4644 -82.5331 326° Northwest 191 220 6,100  Level Indianapolis Center
Fri 12:05:38 AM 39.5086 -82.5719 326° Northwest 191 220 6,100  Level Indianapolis Center
Fri 12:06:39 AM 39.5533 -82.6100 327° Northwest 190 219 6,100  Level Indianapolis Center
Fri 12:07:47 AM 39.6008 -82.6564 323° Northwest 191 220 6,100  Level Indianapolis Center
Fri 12:08:41 AM 39.6433 -82.6881 330° Northwest 193 222 6,100  Level Indianapolis Center
Fri 12:09:36 AM 39.6842 -82.7278 323° Northwest 191 220 6,100 52 Level Indianapolis Center
Fri 12:10:37 AM 39.7253 -82.7675 323° Northwest 190 219 6,200 -49 Climbing Indianapolis Center
Fri 12:11:38 AM 39.7686 -82.8103 323° Northwest 191 220 6,000 -331 Descending Indianapolis Center
Fri 12:12:44 AM 39.8222 -82.8517 329° Northwest 216 249 5,500 -516 Descending Indianapolis Center
Fri 12:13:46 AM 39.8828 -82.8511 360° North 228 262 4,900 -590 Descending Indianapolis Center
Fri 12:14:46 AM 39.9453 -82.8575 356° North 227 261 4,300 -893 Descending Indianapolis Center
Fri 12:15:47 AM 40.0089 -82.8764 347° North 237 273 3,100 -689 Descending Indianapolis Center
Fri 12:16:48 AM 40.0586 -82.9136 330° Northwest 229 264 2,900 -197 Descending Indianapolis Center
Fri 12:18:00 AM 40.0684 -82.9867 323° Northwest  Level Estimated
Fri 12:25:00 AM 40.0667 -83.0667 323° Northwest  Level FlightAware Approximate
Fri 12:26:00 AM 40.0798 -83.0732 323° Northwest  Level Estimated

Login

Don't have an account? Register now (free) for customized features, flight alerts, and more!